Sherman, Maine
Current Conditions -  °F | °C
As of 11:53 AM on Thursday 30 Oct 2014 (Local Time) from KMLT Reporting Station
Broken Clouds Broken Clouds  
Wind Chill: 51°   Ceiling: 9500
Heat Index: 51°   Visibility: 10mi
Dew Point: 38°   Wind: 12mph
Humidity: 61%   Direction: 310°NW
Pressure: 29.85"   Gusts: 17mph
Location:  45.8047°N, 68.2984°W
Report Text: KMLT 301553Z AUTO 31010G15KT 10SM FEW031 BKN095 11/03 A2985 RMK AO2 SLP116 T01060033
Loading
Personal Weather Stations






























Interactive Weather Map
Tropical Storm Tracking
New forecast layout! Learn more

10-Day Weather Forecast

Advertisements
Track Severe Weather on mobile